Time;durP1;ratioP1;P1;durP2;ratioP2;P2;SDS_P1;SDS_P2;PMS_P1;PMS_P2;Temp;Humidity;BMP_temperature;BMP_pressure;BME280_temperature;BME280_humidity;BME280_pressure;Samples;Min_cycle;Max_cycle;Signal;HPM_P1;HPM_P2
2021/10/31 00:00:23;;;;;;;30.97;27.77;;;9.20;99.90;;;;;;4989163;28;20533;-83
2021/10/31 00:02:49;;;;;;;31.85;28.65;;;9.10;99.90;;;;;;4990830;28;20499;-82
2021/10/31 00:05:15;;;;;;;32.37;29.17;;;9.00;99.90;;;;;;4988354;28;20408;-81
2021/10/31 00:07:41;;;;;;;31.83;28.52;;;8.90;99.90;;;;;;4990600;28;20428;-82
2021/10/31 00:10:07;;;;;;;33.03;29.60;;;8.90;99.90;;;;;;4989140;28;20412;-83
2021/10/31 00:12:33;;;;;;;32.05;28.88;;;8.90;99.90;;;;;;4990210;28;20436;-83
2021/10/31 00:15:00;;;;;;;32.75;29.45;;;8.80;99.90;;;;;;4988750;28;20393;-83
2021/10/31 00:17:25;;;;;;;31.85;28.52;;;9.00;99.90;;;;;;4990141;28;20548;-82
2021/10/31 00:19:51;;;;;;;32.45;29.15;;;9.00;99.90;;;;;;4989379;28;20912;-82
2021/10/31 00:22:17;;;;;;;32.60;29.02;;;9.10;99.90;;;;;;4988150;28;20935;-82
2021/10/31 00:24:43;;;;;;;32.83;29.40;;;9.10;99.90;;;;;;4989880;28;20397;-82
2021/10/31 00:27:09;;;;;;;32.83;29.53;;;9.20;99.90;;;;;;4990122;28;20389;-82
2021/10/31 00:29:35;;;;;;;33.45;30.05;;;9.20;99.90;;;;;;4989901;28;20381;-83
2021/10/31 00:32:00;;;;;;;32.40;29.15;;;9.20;99.90;;;;;;4990231;28;20381;-83
2021/10/31 00:34:26;;;;;;;31.15;28.13;;;9.20;99.90;;;;;;4988365;28;20411;-83
2021/10/31 00:36:51;;;;;;;29.93;26.93;;;9.20;99.90;;;;;;4989905;28;20930;-83
2021/10/31 00:39:17;;;;;;;30.90;27.80;;;9.20;99.90;;;;;;4989630;28;20393;-83
2021/10/31 00:41:43;;;;;;;30.25;27.25;;;9.30;99.90;;;;;;4988297;28;20403;-83
2021/10/31 00:44:09;;;;;;;30.15;27.10;;;9.40;99.90;;;;;;4988079;28;20451;-83
2021/10/31 00:46:34;;;;;;;30.60;27.50;;;9.40;99.90;;;;;;4988115;28;20503;-83
2021/10/31 00:49:00;;;;;;;32.07;28.73;;;9.40;99.90;;;;;;4989831;28;20384;-83
2021/10/31 00:51:27;;;;;;;30.13;27.13;;;9.40;99.90;;;;;;4989385;28;20831;-82
2021/10/31 00:53:55;;;;;;;31.00;27.88;;;9.30;99.90;;;;;;4988412;28;20424;-82
2021/10/31 00:56:22;;;;;;;31.08;27.98;;;9.20;99.90;;;;;;4988192;28;20510;-82
2021/10/31 00:58:48;;;;;;;30.73;27.73;;;9.20;99.90;;;;;;4989458;28;20470;-83
2021/10/31 01:01:13;;;;;;;30.77;27.77;;;9.20;99.90;;;;;;4989161;28;20893;-83
2021/10/31 01:03:40;;;;;;;30.30;27.08;;;9.30;99.90;;;;;;4984197;28;20413;-82
2021/10/31 01:06:18;;;;;;;29.47;26.47;;;9.20;99.90;;;;;;4985085;28;20976;-82
2021/10/31 01:08:51;;;;;;;30.35;27.25;;;9.30;99.90;;;;;;4984960;28;20408;-83
2021/10/31 01:11:36;;;;;;;30.33;27.30;;;9.30;99.90;;;;;;4984306;28;20402;-83
2021/10/31 01:14:23;;;;;;;29.60;26.42;;;9.30;99.90;;;;;;4981179;28;20785;-82
2021/10/31 01:17:16;;;;;;;28.73;25.83;;;9.30;99.90;;;;;;4983976;28;20907;-82
2021/10/31 01:20:40;;;;;;;27.73;24.90;;;9.30;99.90;;;;;;4986698;28;20397;-82
2021/10/31 01:23:09;;;;;;;30.20;27.15;;;9.30;99.90;;;;;;4923315;29;20422;-84
2021/10/31 01:25:42;;;;;;;27.38;24.48;;;9.30;99.90;;;;;;4928791;29;20426;-82
2021/10/31 01:28:20;;;;;;;28.05;25.17;;;9.30;99.90;;;;;;4961944;28;20732;-82
2021/10/31 01:30:55;;;;;;;27.40;24.60;;;9.40;99.90;;;;;;4987342;28;20401;-83
2021/10/31 01:33:52;;;;;;;28.00;25.17;;;9.50;99.90;;;;;;4989451;28;20499;-83
2021/10/31 01:37:01;;;;;;;27.45;24.75;;;9.70;99.90;;;;;;4985437;28;20401;-84
2021/10/31 01:39:42;;;;;;;27.35;24.52;;;9.80;99.90;;;;;;4981691;28;20986;-83
2021/10/31 01:42:13;;;;;;;26.80;24.02;;;10.00;99.90;;;;;;4984573;28;20385;-83
2021/10/31 01:44:56;;;;;;;26.17;23.48;;;10.10;99.90;;;;;;4989343;28;20381;-82
2021/10/31 01:47:43;;;;;;;25.00;22.40;;;10.20;99.90;;;;;;4988502;28;20401;-82
2021/10/31 01:50:19;;;;;;;25.37;22.77;;;10.30;99.90;;;;;;4989440;28;20915;-83
2021/10/31 01:52:55;;;;;;;26.17;23.52;;;10.40;99.90;;;;;;4986996;28;20416;-83
2021/10/31 01:55:24;;;;;;;25.83;23.20;;;10.50;99.90;;;;;;4988107;28;20423;-83
2021/10/31 01:57:56;;;;;;;24.48;21.98;;;10.60;99.90;;;;;;4988989;28;20408;-83
2021/10/31 02:00:23;;;;;;;24.58;22.10;;;10.70;99.90;;;;;;4991992;28;20385;-82
2021/10/31 02:02:50;;;;;;;24.30;22.00;;;10.80;99.90;;;;;;4993080;28;20396;-82
2021/10/31 02:05:18;;;;;;;25.75;22.90;;;10.80;99.90;;;;;;4992898;28;20536;-82
2021/10/31 02:07:50;;;;;;;24.83;22.27;;;10.90;99.90;;;;;;4992435;28;20393;-82
2021/10/31 02:10:17;;;;;;;24.63;22.13;;;10.80;99.90;;;;;;4992792;28;20404;-82
2021/10/31 02:12:46;;;;;;;24.00;21.55;;;10.90;99.90;;;;;;4990857;28;20543;-83
2021/10/31 02:15:15;;;;;;;23.50;21.08;;;10.90;99.90;;;;;;4991749;28;20451;-82
2021/10/31 02:17:40;;;;;;;23.77;21.38;;;11.00;99.90;;;;;;4991389;28;20404;-83
2021/10/31 02:20:07;;;;;;;23.27;20.87;;;11.00;99.90;;;;;;4991288;28;20747;-82
2021/10/31 02:22:35;;;;;;;23.02;20.63;;;11.10;99.90;;;;;;4971272;28;20418;-82
2021/10/31 02:25:01;;;;;;;22.65;20.48;;;11.10;99.90;;;;;;4989657;28;20380;-83
2021/10/31 02:27:31;;;;;;;23.40;20.90;;;11.10;99.90;;;;;;4992145;28;20388;-83
2021/10/31 02:29:58;;;;;;;22.05;19.95;;;11.20;99.90;;;;;;4992399;28;20388;-82
2021/10/31 02:32:28;;;;;;;21.33;19.23;;;11.30;99.90;;;;;;4987502;28;20495;-83
2021/10/31 02:34:55;;;;;;;21.95;19.83;;;11.20;99.90;;;;;;4983046;28;20400;-83
2021/10/31 02:37:24;;;;;;;20.70;18.75;;;11.30;99.90;;;;;;4972693;28;20398;-82
2021/10/31 02:39:50;;;;;;;21.73;19.40;;;11.20;99.90;;;;;;4989762;28;20477;-83
2021/10/31 02:42:16;;;;;;;21.83;19.63;;;11.10;99.90;;;;;;4990648;28;20405;-82
2021/10/31 02:44:42;;;;;;;21.98;19.67;;;11.00;99.90;;;;;;4990218;28;20455;-83
2021/10/31 02:47:15;;;;;;;22.58;20.27;;;10.90;99.90;;;;;;4989506;28;20395;-82
2021/10/31 02:49:41;;;;;;;22.33;20.13;;;10.70;99.90;;;;;;4981426;28;20408;-83
2021/10/31 02:52:44;;;;;;;23.05;20.75;;;10.60;99.90;;;;;;4986299;28;20393;-83
2021/10/31 02:55:26;;;;;;;23.40;20.90;;;10.60;99.90;;;;;;4966593;28;20434;-82
2021/10/31 02:57:58;;;;;;;23.00;20.50;;;10.50;99.90;;;;;;4992032;28;20416;-82
2021/10/31 03:00:28;;;;;;;23.27;20.60;;;10.50;99.90;;;;;;4992292;28;20385;-82
2021/10/31 03:02:54;;;;;;;23.20;20.80;;;10.40;99.90;;;;;;4984360;28;20929;-83
2021/10/31 03:05:20;;;;;;;24.58;22.10;;;10.40;99.90;;;;;;4989202;28;20401;-82
2021/10/31 03:07:46;;;;;;;25.20;22.70;;;10.30;99.90;;;;;;4990591;28;20412;-82
2021/10/31 03:10:19;;;;;;;24.93;22.33;;;10.30;99.90;;;;;;4990887;28;20412;-83
2021/10/31 03:12:48;;;;;;;25.40;22.70;;;10.20;99.90;;;;;;4985094;28;20409;-83
2021/10/31 03:15:15;;;;;;;24.60;22.20;;;10.10;99.90;;;;;;4990176;28;20388;-83
2021/10/31 03:17:40;;;;;;;24.15;21.77;;;10.10;99.90;;;;;;4990267;28;20495;-82
2021/10/31 03:20:06;;;;;;;24.77;22.17;;;10.10;99.90;;;;;;4991848;28;20931;-82
2021/10/31 03:22:33;;;;;;;24.77;22.15;;;10.00;99.90;;;;;;4990591;28;20404;-84
2021/10/31 03:24:59;;;;;;;25.25;22.60;;;10.00;99.90;;;;;;4990314;28;20467;-83
2021/10/31 03:27:25;;;;;;;25.98;23.33;;;9.90;99.90;;;;;;4989629;28;20390;-83
2021/10/31 03:29:51;;;;;;;25.07;22.57;;;9.90;99.90;;;;;;4990289;28;20393;-82
2021/10/31 03:32:17;;;;;;;25.43;22.93;;;9.90;99.90;;;;;;4991727;28;20439;-82
2021/10/31 03:34:43;;;;;;;26.90;24.17;;;9.80;99.90;;;;;;4989187;28;20409;-83
2021/10/31 03:37:09;;;;;;;25.50;22.80;;;9.70;99.90;;;;;;4990735;28;20377;-82
2021/10/31 03:39:35;;;;;;;26.25;23.55;;;9.70;99.90;;;;;;4990147;28;20388;-83
2021/10/31 03:42:00;;;;;;;25.92;23.35;;;9.60;99.90;;;;;;4989659;28;20420;-82
2021/10/31 03:44:26;;;;;;;25.13;22.65;;;9.60;99.90;;;;;;4989249;28;20937;-82
2021/10/31 03:46:52;;;;;;;25.92;23.23;;;9.50;99.90;;;;;;4990758;28;20898;-82
2021/10/31 03:49:18;;;;;;;25.92;23.35;;;9.50;99.90;;;;;;4990473;28;20767;-82
2021/10/31 03:51:45;;;;;;;26.50;23.80;;;9.40;99.90;;;;;;4989330;28;20424;-82
2021/10/31 03:54:11;;;;;;;25.00;22.42;;;9.40;99.90;;;;;;4989913;28;20471;-83
2021/10/31 03:56:37;;;;;;;26.08;23.48;;;9.30;99.90;;;;;;4990688;28;20796;-82
2021/10/31 03:59:03;;;;;;;26.20;23.70;;;9.30;99.90;;;;;;4990019;28;20397;-82
2021/10/31 04:01:31;;;;;;;26.95;24.17;;;9.40;99.90;;;;;;4990648;28;20377;-83
2021/10/31 04:03:58;;;;;;;25.98;23.38;;;9.30;99.90;;;;;;4990221;28;20451;-83
2021/10/31 04:06:24;;;;;;;26.17;23.67;;;9.20;99.90;;;;;;4989242;28;20972;-82
2021/10/31 04:08:49;;;;;;;25.97;23.47;;;9.20;99.90;;;;;;4988649;28;20409;-82
2021/10/31 04:11:15;;;;;;;27.23;24.47;;;9.10;99.90;;;;;;4990116;28;20407;-81
2021/10/31 04:13:41;;;;;;;26.80;24.10;;;9.20;99.90;;;;;;4989893;28;20515;-83
2021/10/31 04:16:06;;;;;;;24.87;22.47;;;9.10;99.90;;;;;;4990533;28;20389;-83
2021/10/31 04:18:32;;;;;;;26.13;23.53;;;9.10;99.90;;;;;;4988984;28;20468;-83
2021/10/31 04:20:58;;;;;;;26.20;23.60;;;9.10;99.90;;;;;;4990004;28;20400;-83
2021/10/31 04:23:24;;;;;;;27.63;24.73;;;9.10;99.90;;;;;;4989711;28;20393;-84
2021/10/31 04:25:50;;;;;;;26.30;23.58;;;9.00;99.90;;;;;;4989065;28;20392;-83
2021/10/31 04:28:16;;;;;;;27.00;24.30;;;9.10;99.90;;;;;;4989630;28;20389;-82
2021/10/31 04:30:42;;;;;;;26.13;23.52;;;9.10;99.90;;;;;;4988459;28;20391;-83
2021/10/31 04:33:07;;;;;;;26.52;23.85;;;9.20;99.90;;;;;;4988617;28;20496;-83
2021/10/31 04:35:33;;;;;;;27.05;24.38;;;9.20;99.90;;;;;;4988620;28;20976;-83
2021/10/31 04:38:07;;;;;;;27.33;24.60;;;9.30;99.90;;;;;;4989060;28;20423;-83
2021/10/31 04:40:35;;;;;;;26.33;23.67;;;9.50;99.90;;;;;;4988646;28;20400;-82
2021/10/31 04:43:01;;;;;;;25.43;22.93;;;9.60;99.90;;;;;;4988983;28;20431;-83
2021/10/31 04:45:26;;;;;;;25.53;22.93;;;9.70;99.90;;;;;;4990025;28;20387;-82
2021/10/31 04:47:52;;;;;;;24.25;21.75;;;9.80;99.90;;;;;;4989736;28;20403;-83
2021/10/31 04:50:19;;;;;;;24.30;21.80;;;9.90;99.90;;;;;;4988717;28;20423;-83
2021/10/31 04:52:45;;;;;;;24.45;21.95;;;10.00;99.90;;;;;;4987677;28;20408;-82
2021/10/31 04:55:12;;;;;;;24.25;21.85;;;10.10;99.90;;;;;;4989520;28;20381;-83
2021/10/31 04:57:38;;;;;;;23.02;20.73;;;10.20;99.90;;;;;;4988170;28;20986;-83
2021/10/31 05:00:07;;;;;;;24.35;21.85;;;10.30;99.90;;;;;;4989276;28;20520;-83
2021/10/31 05:02:33;;;;;;;23.30;20.90;;;10.30;99.90;;;;;;4989294;28;20432;-83
2021/10/31 05:04:59;;;;;;;23.33;20.95;;;10.40;99.90;;;;;;4988241;28;20878;-83
2021/10/31 05:07:25;;;;;;;24.10;21.55;;;10.40;99.90;;;;;;4988842;28;20395;-83
2021/10/31 05:09:51;;;;;;;23.45;21.13;;;10.50;99.90;;;;;;4987567;28;20405;-83
2021/10/31 05:12:18;;;;;;;23.13;20.87;;;10.60;99.90;;;;;;4989072;28;21232;-83
2021/10/31 05:14:44;;;;;;;22.98;20.67;;;10.60;99.90;;;;;;4987614;28;20759;-83
2021/10/31 05:17:10;;;;;;;21.35;19.15;;;10.60;99.90;;;;;;4989385;28;20400;-84
2021/10/31 05:19:35;;;;;;;20.97;18.97;;;10.80;99.90;;;;;;4989956;28;20380;-83
2021/10/31 05:22:01;;;;;;;21.87;19.57;;;10.80;99.90;;;;;;4985523;28;20395;-82
2021/10/31 05:24:27;;;;;;;22.67;20.38;;;10.80;99.90;;;;;;4981842;28;21165;-83
2021/10/31 05:26:52;;;;;;;22.33;20.13;;;10.80;99.90;;;;;;4989775;28;20532;-83
2021/10/31 05:29:18;;;;;;;20.37;18.30;;;10.90;99.90;;;;;;4989057;28;20469;-83
2021/10/31 05:31:44;;;;;;;23.00;20.50;;;10.90;99.90;;;;;;4988684;28;20400;-84
2021/10/31 05:34:11;;;;;;;21.43;19.27;;;10.90;99.90;;;;;;4989006;28;20404;-82
2021/10/31 05:36:36;;;;;;;20.92;18.92;;;11.00;99.90;;;;;;4987406;28;20404;-83
2021/10/31 05:39:03;;;;;;;21.27;19.27;;;11.00;99.90;;;;;;4988689;28;20725;-83
2021/10/31 05:41:29;;;;;;;20.70;18.50;;;11.00;99.90;;;;;;4988902;28;20443;-83
2021/10/31 05:43:54;;;;;;;20.63;18.53;;;10.90;99.90;;;;;;4987217;28;20389;-83
2021/10/31 05:46:20;;;;;;;20.77;18.63;;;10.90;99.90;;;;;;4989094;28;20814;-83
2021/10/31 05:48:45;;;;;;;21.27;19.27;;;11.00;99.90;;;;;;4989126;28;20377;-83
2021/10/31 05:51:11;;;;;;;20.27;18.27;;;10.90;99.90;;;;;;4987643;28;20385;-83
2021/10/31 05:53:37;;;;;;;20.55;18.42;;;10.90;99.90;;;;;;4986245;28;20495;-83
2021/10/31 05:56:05;;;;;;;21.00;18.90;;;10.90;99.90;;;;;;4988739;28;20401;-84
2021/10/31 05:58:30;;;;;;;21.15;19.05;;;10.80;99.90;;;;;;4988691;28;20381;-82
2021/10/31 06:00:56;;;;;;;21.92;19.80;;;10.80;99.90;;;;;;4988366;28;20385;-83
2021/10/31 06:03:23;;;;;;;22.30;19.90;;;10.70;99.90;;;;;;4988385;28;20400;-84
2021/10/31 06:05:49;;;;;;;22.25;19.98;;;10.60;99.90;;;;;;4975959;28;20440;-84
2021/10/31 06:08:16;;;;;;;20.20;18.15;;;10.60;99.90;;;;;;4987097;28;20443;-83
2021/10/31 06:10:44;;;;;;;19.88;17.90;;;10.60;99.90;;;;;;4986945;28;20431;-83
2021/10/31 06:13:10;;;;;;;19.47;17.60;;;10.60;99.90;;;;;;4988822;28;20409;-83
2021/10/31 06:15:35;;;;;;;22.77;20.23;;;10.60;99.90;;;;;;4988499;28;20392;-83
2021/10/31 06:18:01;;;;;;;20.33;18.23;;;10.70;99.90;;;;;;4988821;28;20384;-82
2021/10/31 06:20:27;;;;;;;21.42;19.25;;;10.60;99.90;;;;;;4986929;28;20471;-83
2021/10/31 06:22:53;;;;;;;20.80;18.73;;;10.60;99.90;;;;;;4988553;28;20994;-83
2021/10/31 06:25:18;;;;;;;21.00;18.97;;;10.60;99.90;;;;;;4987884;28;20487;-83
2021/10/31 06:27:44;;;;;;;20.90;18.70;;;10.60;99.90;;;;;;4988547;28;20389;-83
2021/10/31 06:30:10;;;;;;;21.92;19.73;;;10.60;99.90;;;;;;4986590;28;20483;-83
2021/10/31 06:32:36;;;;;;;21.02;18.85;;;10.50;99.90;;;;;;4988317;28;20472;-83
2021/10/31 06:35:02;;;;;;;21.75;19.48;;;10.60;99.90;;;;;;4987025;28;20499;-84
2021/10/31 06:37:27;;;;;;;21.77;19.50;;;10.60;99.90;;;;;;4988422;28;20439;-83
2021/10/31 06:39:53;;;;;;;22.33;20.03;;;10.60;99.90;;;;;;4984363;28;20405;-83
2021/10/31 06:42:18;;;;;;;21.05;18.95;;;10.70;99.90;;;;;;4978437;28;20448;-82
2021/10/31 06:44:44;;;;;;;19.03;17.23;;;10.80;99.90;;;;;;4982891;28;20389;-82
2021/10/31 06:47:10;;;;;;;19.08;17.17;;;11.00;99.90;;;;;;4983878;28;20396;-83
2021/10/31 06:49:39;;;;;;;19.55;17.48;;;11.10;99.90;;;;;;4987856;28;20478;-83
2021/10/31 06:52:05;;;;;;;19.10;17.20;;;11.30;99.90;;;;;;4990419;28;20389;-83
2021/10/31 06:54:31;;;;;;;19.73;17.83;;;11.40;99.90;;;;;;4989472;28;20412;-83
2021/10/31 06:56:56;;;;;;;18.50;16.50;;;11.60;99.90;;;;;;4991510;28;20384;-83
2021/10/31 06:59:22;;;;;;;18.30;16.50;;;11.70;99.90;;;;;;4990581;28;20948;-83
2021/10/31 07:01:47;;;;;;;19.05;17.08;;;11.80;99.90;;;;;;4992019;28;20373;-84
2021/10/31 07:04:13;;;;;;;18.73;16.73;;;11.80;99.90;;;;;;4991589;28;20455;-83
2021/10/31 07:06:39;;;;;;;18.23;16.35;;;11.80;99.90;;;;;;4989987;28;20416;-83
2021/10/31 07:09:05;;;;;;;18.87;16.97;;;11.80;99.90;;;;;;4989499;28;20400;-83
2021/10/31 07:11:30;;;;;;;18.45;16.55;;;11.80;99.90;;;;;;4991253;28;20494;-83
2021/10/31 07:13:56;;;;;;;18.50;16.48;;;11.90;99.90;;;;;;4989655;28;20961;-84
2021/10/31 07:16:21;;;;;;;17.97;16.17;;;11.90;99.90;;;;;;4984620;28;21234;-85
2021/10/31 07:18:47;;;;;;;17.63;15.93;;;12.10;99.90;;;;;;4991308;28;20385;-84
2021/10/31 07:21:12;;;;;;;17.27;15.48;;;12.30;99.90;;;;;;4983065;28;20684;-84
2021/10/31 07:23:38;;;;;;;17.07;15.47;;;12.50;99.90;;;;;;4988796;28;20393;-83
2021/10/31 07:26:06;;;;;;;17.70;16.00;;;12.60;99.90;;;;;;4990677;28;20425;-83
2021/10/31 07:28:32;;;;;;;16.25;14.60;;;12.70;99.90;;;;;;4987509;28;20404;-83
2021/10/31 07:30:58;;;;;;;18.20;15.93;;;12.70;99.90;;;;;;4987837;28;20484;-83
2021/10/31 07:33:24;;;;;;;17.48;15.68;;;12.80;99.90;;;;;;4985333;28;20413;-83
2021/10/31 07:35:50;;;;;;;16.80;15.20;;;12.80;99.90;;;;;;4980591;28;20513;-84
2021/10/31 07:38:15;;;;;;;17.35;15.52;;;12.80;99.90;;;;;;4987179;28;20384;-83
2021/10/31 07:40:41;;;;;;;17.58;15.52;;;12.80;99.90;;;;;;4985533;28;21075;-83
2021/10/31 07:43:07;;;;;;;16.80;15.13;;;12.80;99.90;;;;;;4988524;28;20783;-83
2021/10/31 07:45:33;;;;;;;17.20;15.50;;;12.90;99.90;;;;;;4986969;28;20396;-82
2021/10/31 07:48:00;;;;;;;17.27;15.47;;;13.00;99.90;;;;;;4989653;28;20396;-83
2021/10/31 07:50:34;;;;;;;18.23;15.32;;;13.10;99.90;;;;;;4989028;28;20938;-84
2021/10/31 07:53:00;;;;;;;16.95;15.20;;;13.20;99.90;;;;;;4988689;28;20408;-83
2021/10/31 07:55:30;;;;;;;16.02;14.43;;;13.40;99.90;;;;;;4989084;28;20448;-83
2021/10/31 07:57:57;;;;;;;15.90;14.20;;;13.50;99.90;;;;;;4990807;28;20484;-83
2021/10/31 08:00:23;;;;;;;16.05;14.35;;;13.60;99.90;;;;;;4990609;28;21207;-84
2021/10/31 08:02:48;;;;;;;14.48;13.07;;;13.70;99.90;;;;;;4990696;28;20380;-84
2021/10/31 08:05:14;;;;;;;15.97;13.43;;;13.80;99.90;;;;;;4990678;28;20381;-83
2021/10/31 08:07:41;;;;;;;15.10;13.60;;;13.90;99.90;;;;;;4990443;28;20396;-84
2021/10/31 08:10:08;;;;;;;15.13;13.55;;;14.00;99.90;;;;;;4988579;28;20507;-85
2021/10/31 08:12:35;;;;;;;16.00;14.40;;;14.20;99.90;;;;;;4990208;28;20389;-84
2021/10/31 08:15:01;;;;;;;16.42;13.23;;;14.20;99.90;;;;;;4990250;28;20384;-85
2021/10/31 08:17:27;;;;;;;15.33;13.83;;;14.30;99.90;;;;;;4989020;28;20396;-85
2021/10/31 08:19:52;;;;;;;15.13;13.30;;;14.30;99.90;;;;;;4989219;28;20463;-84
2021/10/31 08:22:18;;;;;;;15.15;13.57;;;14.50;99.90;;;;;;4990151;28;20389;-84
2021/10/31 08:24:44;;;;;;;14.63;13.13;;;14.70;99.90;;;;;;4988364;28;20437;-84
2021/10/31 08:27:09;;;;;;;13.67;12.13;;;14.80;99.90;;;;;;4989953;28;20992;-83
2021/10/31 08:29:36;;;;;;;13.82;12.32;;;15.00;99.90;;;;;;4981938;28;20883;-84
2021/10/31 08:32:01;;;;;;;13.73;12.32;;;15.20;99.90;;;;;;4987716;28;20420;-84
2021/10/31 08:34:27;;;;;;;15.87;13.17;;;15.50;99.90;;;;;;4989840;28;20439;-86
2021/10/31 08:36:53;;;;;;;23.88;17.65;;;15.60;99.90;;;;;;4989414;28;20569;-83
2021/10/31 08:39:19;;;;;;;19.23;15.15;;;15.60;99.90;;;;;;4989167;28;20424;-85
2021/10/31 08:41:45;;;;;;;17.63;15.70;;;15.70;99.90;;;;;;4987639;28;20918;-84
2021/10/31 08:44:12;;;;;;;15.27;12.48;;;15.90;99.90;;;;;;4989756;28;20426;-84
2021/10/31 08:46:37;;;;;;;15.80;13.73;;;16.10;99.90;;;;;;4987740;28;20463;-83
2021/10/31 08:49:04;;;;;;;13.10;11.80;;;16.20;99.90;;;;;;4989433;28;20385;-84
2021/10/31 08:51:30;;;;;;;13.88;11.75;;;16.40;99.90;;;;;;4988474;28;20388;-84
2021/10/31 08:53:57;;;;;;;13.68;12.27;;;16.60;99.90;;;;;;4989380;28;20464;-83
2021/10/31 08:56:25;;;;;;;11.55;10.43;;;16.70;99.90;;;;;;4987353;28;20479;-84
2021/10/31 08:58:51;;;;;;;11.68;10.55;;;16.90;99.90;;;;;;4987452;28;20407;-83
2021/10/31 09:01:17;;;;;;;14.45;10.88;;;17.10;99.90;;;;;;4985263;28;20469;-83
2021/10/31 09:03:44;;;;;;;11.13;10.03;;;17.30;99.90;;;;;;4986049;28;20484;-83
2021/10/31 09:06:11;;;;;;;11.10;9.97;;;17.70;99.90;;;;;;4985398;28;20521;-83
2021/10/31 09:08:41;;;;;;;12.23;10.93;;;17.70;99.90;;;;;;4985201;28;20447;-84
2021/10/31 09:11:07;;;;;;;11.73;10.23;;;17.60;99.90;;;;;;4988426;28;20393;-83
2021/10/31 09:13:33;;;;;;;10.70;9.60;;;17.80;99.90;;;;;;4981322;28;20660;-83
2021/10/31 09:16:00;;;;;;;10.77;9.70;;;17.90;99.90;;;;;;4984794;28;20950;-83
2021/10/31 09:18:26;;;;;;;11.52;10.43;;;18.00;99.90;;;;;;4986850;28;20385;-83
2021/10/31 09:20:52;;;;;;;9.83;8.93;;;18.20;99.90;;;;;;4982192;28;21043;-82
2021/10/31 09:23:18;;;;;;;12.00;10.13;;;18.30;99.90;;;;;;4982379;28;20840;-83
2021/10/31 09:25:47;;;;;;;10.88;9.88;;;18.20;99.90;;;;;;4986737;28;20946;-85
2021/10/31 09:28:13;;;;;;;12.77;9.50;;;18.10;99.90;;;;;;4987240;28;20396;-84
2021/10/31 09:30:41;;;;;;;9.82;8.57;;;18.20;99.90;;;;;;4988763;28;20476;-82
2021/10/31 09:33:10;;;;;;;10.82;8.98;;;18.40;99.90;;;;;;4988701;28;20491;-82
2021/10/31 09:35:43;;;;;;;10.00;8.98;;;18.60;99.90;;;;;;4988774;28;20472;-85
2021/10/31 09:38:09;;;;;;;9.90;8.80;;;18.70;99.90;;;;;;4975564;28;20517;-83
2021/10/31 09:40:36;;;;;;;10.27;8.67;;;18.70;99.90;;;;;;4986448;28;20882;-82
2021/10/31 09:43:03;;;;;;;9.48;8.38;;;18.80;99.90;;;;;;4988325;28;20393;-82
2021/10/31 09:45:30;;;;;;;8.90;8.00;;;18.90;99.90;;;;;;4988560;28;20385;-84
2021/10/31 09:48:01;;;;;;;9.10;8.02;;;19.00;99.90;;;;;;4988628;28;20437;-88
2021/10/31 09:50:35;;;;;;;8.80;7.97;;;18.90;99.90;;;;;;4987539;28;20393;-84
2021/10/31 09:53:13;;;;;;;8.50;7.70;;;18.90;99.90;;;;;;4987599;28;20419;-87
2021/10/31 09:55:40;;;;;;;9.50;8.60;;;18.90;99.90;;;;;;4981326;28;20492;-86
2021/10/31 09:58:18;;;;;;;9.30;8.40;;;19.00;99.90;;;;;;4984107;28;20397;-85
2021/10/31 10:00:47;;;;;;;9.98;8.18;;;19.00;99.90;;;;;;4985213;28;20420;-82
2021/10/31 10:06:25;;;;;;;12.00;7.97;;;19.10;99.90;;;;;;4985267;28;20408;-82
2021/10/31 10:08:58;;;;;;;9.32;8.43;;;19.20;99.90;;;;;;4987388;28;20396;-83
2021/10/31 10:11:25;;;;;;;8.52;7.75;;;19.10;99.90;;;;;;4988313;28;20428;-83
2021/10/31 10:13:51;;;;;;;8.88;7.97;;;19.20;99.90;;;;;;4988418;28;20412;-84
2021/10/31 10:16:25;;;;;;;11.18;8.10;;;19.20;99.90;;;;;;4986703;28;20399;-82
2021/10/31 10:18:52;;;;;;;10.45;8.48;;;19.10;99.90;;;;;;4986746;28;20384;-83
2021/10/31 10:21:30;;;;;;;9.63;8.63;;;19.00;99.90;;;;;;4987678;28;20463;-85
2021/10/31 10:23:58;;;;;;;9.73;8.73;;;18.80;99.90;;;;;;4985241;28;20413;-82
2021/10/31 10:26:31;;;;;;;10.25;9.10;;;18.60;99.90;;;;;;4988175;28;20409;-83
2021/10/31 10:29:10;;;;;;;10.70;9.10;;;18.50;99.90;;;;;;4988601;28;20763;-82
2021/10/31 10:31:36;;;;;;;10.30;9.30;;;18.50;99.90;;;;;;4986115;28;20437;-84
2021/10/31 10:34:02;;;;;;;9.93;9.00;;;18.40;99.90;;;;;;4986743;28;20828;-84
2021/10/31 10:36:34;;;;;;;12.07;10.88;;;18.30;99.90;;;;;;4985019;28;20377;-82
2021/10/31 10:39:08;;;;;;;10.65;9.55;;;18.10;99.90;;;;;;4982076;28;20392;-83
2021/10/31 10:41:46;;;;;;;9.95;9.05;;;18.10;99.90;;;;;;4987915;28;20401;-82
2021/10/31 10:44:36;;;;;;;11.10;10.00;;;18.00;99.90;;;;;;4979354;28;20888;-82
2021/10/31 10:47:08;;;;;;;10.90;9.68;;;17.90;99.90;;;;;;4978132;28;20387;-82
2021/10/31 10:49:40;;;;;;;10.07;9.00;;;17.80;99.90;;;;;;4986620;28;20394;-83
2021/10/31 10:52:08;;;;;;;13.95;9.27;;;17.80;99.90;;;;;;4983300;28;20417;-84
2021/10/31 10:54:35;;;;;;;10.50;9.50;;;17.80;99.90;;;;;;4981415;28;20413;-84
2021/10/31 10:57:06;;;;;;;9.63;8.73;;;17.70;99.90;;;;;;4988371;28;20400;-81
2021/10/31 10:59:34;;;;;;;18.00;10.07;;;17.70;99.90;;;;;;4987820;28;20487;-82
2021/10/31 11:02:08;;;;;;;9.82;8.82;;;17.70;99.90;;;;;;4984838;28;20493;-82
2021/10/31 11:04:35;;;;;;;9.27;8.32;;;17.90;99.90;;;;;;4984394;28;20934;-82
2021/10/31 11:07:03;;;;;;;10.38;8.75;;;18.00;99.90;;;;;;4986386;28;20389;-84
2021/10/31 11:09:48;;;;;;;12.32;9.20;;;18.10;99.90;;;;;;4981311;28;20406;-83
2021/10/31 11:12:36;;;;;;;12.13;10.18;;;18.20;99.90;;;;;;4984914;28;20537;-82
2021/10/31 11:15:16;;;;;;;10.40;9.40;;;18.30;99.90;;;;;;4982840;28;20397;-83
2021/10/31 11:17:43;;;;;;;11.50;10.40;;;18.30;99.90;;;;;;4959956;28;20394;-83
2021/10/31 11:20:12;;;;;;;12.27;10.53;;;18.10;99.90;;;;;;4984339;28;20400;-84
2021/10/31 11:22:42;;;;;;;10.93;9.82;;;18.20;99.90;;;;;;4977415;28;20977;-83
2021/10/31 11:25:10;;;;;;;10.73;9.63;;;18.20;99.90;;;;;;4983783;28;20495;-81
2021/10/31 11:27:37;;;;;;;10.47;9.40;;;18.20;99.90;;;;;;4986358;28;20397;-83
2021/10/31 11:30:03;;;;;;;10.37;9.30;;;18.30;99.90;;;;;;4976960;28;20410;-83
2021/10/31 11:32:29;;;;;;;11.25;9.70;;;18.30;99.90;;;;;;4989671;28;20476;-87
2021/10/31 11:34:57;;;;;;;12.07;10.18;;;18.20;99.90;;;;;;4982631;28;20898;-83
2021/10/31 11:37:27;;;;;;;11.00;9.38;;;18.10;99.90;;;;;;4985406;28;20882;-83
2021/10/31 11:40:03;;;;;;;11.98;10.77;;;18.10;99.90;;;;;;4990030;28;20471;-82
2021/10/31 11:42:35;;;;;;;19.08;10.95;;;18.10;99.90;;;;;;4985696;28;20401;-82
2021/10/31 11:45:07;;;;;;;10.77;9.73;;;18.10;99.90;;;;;;4985697;28;20889;-81
2021/10/31 11:47:33;;;;;;;13.10;11.70;;;18.20;99.90;;;;;;4989372;28;20401;-85
2021/10/31 11:50:05;;;;;;;12.40;11.10;;;18.20;99.90;;;;;;4989760;28;20443;-82
2021/10/31 11:52:58;;;;;;;11.90;10.70;;;18.20;99.90;;;;;;4990418;28;20385;-83
2021/10/31 11:55:31;;;;;;;19.52;10.50;;;18.10;99.90;;;;;;4972540;28;20467;-82
2021/10/31 11:58:29;;;;;;;14.37;10.43;;;18.20;99.90;;;;;;4985587;28;20405;-82
2021/10/31 12:00:58;;;;;;;12.00;9.73;;;18.40;99.90;;;;;;4980652;28;20606;-87
2021/10/31 12:03:32;;;;;;;10.98;9.77;;;18.60;99.90;;;;;;4987714;28;20377;-86
2021/10/31 12:06:22;;;;;;;11.25;9.35;;;18.70;99.90;;;;;;4989070;28;20414;-83
2021/10/31 12:08:59;;;;;;;10.15;9.15;;;18.70;99.90;;;;;;4987608;28;20389;-85
2021/10/31 12:11:33;;;;;;;9.10;8.20;;;18.80;99.90;;;;;;4989350;28;20468;-83
2021/10/31 12:14:11;;;;;;;8.75;7.85;;;18.90;99.90;;;;;;4985085;28;20416;-83
2021/10/31 12:16:58;;;;;;;9.25;8.23;;;18.90;99.90;;;;;;4970731;28;20779;-87
2021/10/31 12:19:24;;;;;;;9.85;7.90;;;18.80;99.90;;;;;;4982545;28;20392;-89
2021/10/31 12:22:29;;;;;;;8.90;8.02;;;18.70;99.90;;;;;;4983422;28;20434;-89
2021/10/31 12:25:01;;;;;;;9.27;8.38;;;18.60;99.90;;;;;;4935703;29;20722;-85
2021/10/31 12:27:49;;;;;;;8.80;7.97;;;18.60;99.90;;;;;;4976287;28;20882;-83
2021/10/31 12:30:20;;;;;;;9.13;8.15;;;18.50;99.90;;;;;;4978230;28;20456;-83
2021/10/31 12:32:49;;;;;;;15.50;8.27;;;18.50;99.90;;;;;;4983919;28;20871;-83
2021/10/31 12:35:28;;;;;;;7.43;6.63;;;18.60;99.90;;;;;;4973215;28;20482;-83
2021/10/31 12:38:24;;;;;;;8.37;7.57;;;18.70;99.90;;;;;;4981371;28;20436;-83
2021/10/31 12:41:13;;;;;;;8.27;6.72;;;18.80;99.90;;;;;;4985316;28;20403;-84
2021/10/31 12:43:47;;;;;;;8.48;7.15;;;18.90;99.90;;;;;;4982742;28;20990;-84
2021/10/31 12:46:30;;;;;;;7.25;6.55;;;19.00;99.90;;;;;;4989640;28;20476;-83